• Join FlightAware (Why Join?)
  • Login
  • US Flag 
12:03AM EDT


 

Airport Tracker/Info


-or-


 

Live Flight TrackerFlight Track Log ✈ BOE5 ✈ 03-Jul-2013 ✈ KGEG - KPAE

Flight Track Log - Related Links

Times and Time Zones

All times are in EDT time to prevent confusion due to time zone crossing. See the BOE5 flight status page for this flight to view local times or setup timezone preferences in your user account.

Time Position Orientation Groundspeed Altitude Reporting Facility
EDT Latitude Longitude Course Direction KTS MPH feet Rate Location/Type
05:49PM 47.6758 -117.4956 275° West 215 247 5,500  Level Seattle Center
05:50PM 47.7131 -117.5853 302° West 260 299 8,400 3,300 Climbing Seattle Center
05:51PM 47.7236 -117.7203 277° West 278 320 12,300 3,420 Climbing Seattle Center
05:52PM 47.7275 -117.8556 272° West 329 379 15,500 2,700 Climbing Seattle Center
05:54PM 47.6756 -118.4911 275° West  Level FlightAware Approximate
05:58PM 47.5930 -118.7020 272° West 406 467 30,200  Level FlightAware
05:58PM 47.5760 -118.8030 256° West 412 474 31,500 2,100 Climbing FlightAware
05:59PM 47.5620 -118.8870 256° West 413 475 32,600 1,920 Climbing FlightAware
05:59PM 47.5410 -119.0080 256° West 418 481 33,900 1,440 Climbing FlightAware
06:00PM 47.5210 -119.1260 256° West 432 497 34,700 1,500 Climbing FlightAware
06:01PM 47.5020 -119.2340 255° West 428 493 35,900 960 Climbing FlightAware
06:01PM 47.4800 -119.3580 255° West 441 507 36,000 60 Climbing FlightAware
06:02PM 47.4620 -119.4640 256° West 443 510 36,000  Level FlightAware
06:03PM 47.4390 -119.5950 255° West 449 517 36,000  Level FlightAware
06:03PM 47.4180 -119.7150 256° West 451 519 36,000  Level FlightAware
06:04PM 47.3980 -119.8220 255° West 453 521 36,000  Level FlightAware
06:05PM 47.3770 -119.9420 256° West 448 516 36,000  Level FlightAware
06:05PM 47.3540 -120.0680 255° West 448 516 36,000  Level FlightAware
06:06PM 47.3300 -120.2000 255° West 447 514 36,000  Level FlightAware
06:08PM 47.2750 -120.4990 255° West 450 518 36,000  Level FlightAware
06:09PM 47.2500 -120.6300 254° West 451 519 36,000  Level FlightAware
06:09PM 47.2280 -120.7490 255° West 451 519 36,000  Level FlightAware
06:10PM 47.2010 -120.8890 254° West 449 517 36,000  Level FlightAware
06:11PM 47.1710 -121.0500 255° West 448 516 36,000  Level FlightAware
06:12PM 47.1480 -121.1690 254° West 450 518 36,000  Level FlightAware
06:12PM 47.1270 -121.2780 254° West 451 519 36,000  Level FlightAware
06:13PM 47.1040 -121.3970 254° West 453 521 36,000  Level FlightAware
06:14PM 47.0850 -121.4910 253° West 451 519 36,000  Level FlightAware
06:14PM 47.0650 -121.5930 254° West 452 520 36,000  Level FlightAware
06:16PM 47.0180 -121.8330 254° West 455 524 36,000  Level FlightAware
06:16PM 46.9850 -121.9990 254° West 454 522 36,000  Level FlightAware
06:17PM 46.9610 -122.1170 253° West 452 520 36,000  Level FlightAware
06:18PM 46.9370 -122.2320 253° West 454 522 36,000  Level FlightAware
06:18PM 46.9110 -122.3620 254° West 456 525 36,000  Level FlightAware
06:19PM 46.8850 -122.4870 253° West 456 525 36,000  Level FlightAware
06:20PM 46.8530 -122.6420 253° West 455 524 36,000  Level FlightAware
06:21PM 46.8330 -122.7410 254° West 455 524 36,000  Level FlightAware
06:21PM 46.8050 -122.8740 253° West 454 522 36,000  Level FlightAware
06:22PM 46.7810 -122.9870 253° West 456 525 36,000  Level FlightAware
06:23PM 46.7510 -123.1290 253° West 456 525 36,000 -300 Level FlightAware
06:24PM 46.7140 -123.3000 253° West 456 525 35,500 -600 Descending FlightAware
06:25PM 46.6870 -123.4260 253° West 450 518 35,000 -360 Descending FlightAware
06:25PM 46.6600 -123.5510 253° West 450 518 35,000  Level FlightAware
06:26PM 46.6360 -123.6630 253° West 451 519 35,000  Level FlightAware
06:27PM 46.6090 -123.7840 252° West 452 520 35,000  Level FlightAware
06:27PM 46.5850 -123.8960 253° West 453 521 35,000  Level FlightAware
06:28PM 46.5590 -124.0140 252° West 453 521 35,000  Level FlightAware
06:29PM 46.5350 -124.1390 254° West 458 527 35,000  Level FlightAware
06:29PM 46.5180 -124.2640 259° West 461 531 35,000  Level FlightAware
06:30PM 46.5020 -124.3940 260° West 464 534 35,000  Level FlightAware
06:31PM 46.4880 -124.5180 261° West 468 539 35,000  Level FlightAware
06:31PM 46.5080 -124.6050 288° West 489 563 35,000  Level FlightAware
06:31PM 46.5300 -124.6390 313° West 500 575 35,000  Level FlightAware
06:32PM 46.5630 -124.6640 332° Northwest 516 594 35,000  Level FlightAware
06:32PM 46.6390 -124.6630 North 540 621 35,000  Level FlightAware
06:33PM 46.6840 -124.6250 30° Northeast 546 628 35,000  Level FlightAware
06:34PM 46.7340 -124.4150 71° East 533 613 35,000  Level FlightAware
06:34PM 46.6340 -124.3100 144° Southeast 478 550 35,000  Level FlightAware
06:35PM 46.5780 -124.1850 123° Southeast 517 595 35,000  Level FlightAware
06:36PM 46.5650 -124.0450 98° East 535 616 35,000  Level FlightAware
06:37PM 46.5780 -123.8920 83° East 550 633 35,000  Level FlightAware
06:37PM 46.6070 -123.7440 74° East 550 633 35,000  Level FlightAware
06:38PM 46.6290 -123.6080 77° East 539 620 35,000  Level FlightAware
06:39PM 46.6050 -123.4720 104° East 512 589 35,000  Level FlightAware
06:39PM 46.5630 -123.3920 127° Southeast 481 554 35,000  Level FlightAware
06:40PM 46.5120 -123.3500 150° Southeast 457 526 35,000  Level FlightAware
06:40PM 46.4210 -123.3430 177° South 437 503 35,000  Level FlightAware
06:41PM 46.3490 -123.3630 191° South 438 504 35,000  Level FlightAware
06:42PM 46.2710 -123.3860 192° South 429 494 35,000  Level FlightAware
06:42PM 46.1790 -123.4130 191° South 433 498 35,000  Level FlightAware
06:43PM 46.1000 -123.4350 191° South 434 499 35,000  Level FlightAware
06:44PM 46.0200 -123.4580 191° South 435 501 35,000  Level FlightAware
06:44PM 45.9380 -123.4820 192° South 436 502 35,000  Level FlightAware
06:45PM 45.8520 -123.5060 191° South 436 502 35,000 -180 Level FlightAware
06:46PM 45.7960 -123.5220 191° South 432 497 34,800 -1,560 Descending FlightAware
06:46PM 45.7210 -123.5430 191° South 433 498 33,300 -2,940 Descending FlightAware
06:47PM 45.6340 -123.5680 191° South 448 516 30,800 -3,540 Descending FlightAware
06:48PM 45.5540 -123.5910 191° South 467 537 28,600 -3,120 Descending FlightAware
06:48PM 45.4970 -123.6070 191° South 466 536 27,400 -2,760 Descending FlightAware
06:49PM 45.4120 -123.6300 191° South 457 526 25,500 -2,760 Descending FlightAware
06:49PM 45.3270 -123.6540 191° South 444 511 23,700 -2,580 Descending FlightAware
06:50PM 45.2430 -123.6770 191° South 432 497 21,900 -2,640 Descending FlightAware
06:51PM 45.1570 -123.7010 191° South 422 486 20,000 -2,760 Descending FlightAware
06:51PM 45.0840 -123.7210 191° South 424 488 18,200 -2,760 Descending FlightAware
06:52PM 45.0150 -123.7400 191° South 417 480 16,600 -2,640 Descending FlightAware
06:53PM 44.9360 -123.7620 191° South 407 468 14,800 -2,520 Descending FlightAware
06:53PM 44.8570 -123.7830 191° South 397 457 13,000 -2,460 Descending FlightAware
06:54PM 44.7850 -123.8030 191° South 387 445 11,400 -1,380 Descending FlightAware
06:55PM 44.7290 -123.8170 190° South 383 441 11,200 -720 Descending FlightAware
06:56PM 44.6490 -123.8400 192° South 318 366 10,400 -840 Descending FlightAware
06:56PM 44.5970 -123.8540 191° South 294 338 10,100 -540 Descending FlightAware
06:57PM 44.5550 -123.8660 192° South 285 328 9,800 -540 Descending FlightAware
06:57PM 44.5380 -123.8710 192° South 284 327 9,700 -1,020 Descending FlightAware
06:57PM 44.5000 -123.8810 191° South 281 323 9,100 -1,260 Descending FlightAware
06:58PM 44.4800 -123.8860 190° South 283 326 8,800 -480 Descending FlightAware
06:58PM 44.4470 -123.8950 191° South 284 327 8,800  Level FlightAware
06:58PM 44.4260 -123.9010 192° South 280 322 8,800  Level FlightAware
06:59PM 44.3980 -123.9080 190° South 281 323 8,800 120 Level FlightAware
06:59PM 44.3720 -123.9150 191° South 280 322 8,900 1,980 Climbing FlightAware
07:00PM 44.3180 -123.9300 191° South 301 346 10,900 2,520 Climbing FlightAware
07:00PM 44.2620 -123.9450 191° South 346 398 12,300 2,100 Climbing FlightAware
07:01PM 44.2030 -123.9610 191° South 384 442 13,500 2,460 Climbing FlightAware
07:02PM 44.1170 -123.9840 191° South 412 474 15,700 3,000 Climbing FlightAware
07:02PM 44.0410 -124.0040 191° South 426 490 17,800 3,180 Climbing FlightAware
07:03PM 43.9700 -124.0220 190° South 429 494 19,800 3,120 Climbing FlightAware
07:04PM 43.8940 -124.0430 191° South 436 502 21,800 3,960 Climbing FlightAware
07:04PM 43.8500 -124.0540 190° South 411 473 23,900 3,720 Climbing FlightAware
07:05PM 43.7370 -124.0840 191° South 415 478 26,900 2,760 Climbing FlightAware
07:06PM 43.6600 -124.1120 195° South 419 482 28,600 2,400 Climbing FlightAware
07:07PM 43.6000 -124.1890 223° Southwest 424 488 30,300 2,340 Climbing FlightAware
07:07PM 43.5820 -124.3110 259° West 449 517 32,100 2,520 Climbing FlightAware
07:08PM 43.6110 -124.4090 292° West 471 542 33,800 2,160 Climbing FlightAware
07:09PM 43.6790 -124.4770 324° Northwest 499 574 34,900 1,380 Climbing FlightAware
07:09PM 43.7150 -124.4880 348° North 512 589 35,000 120 Climbing FlightAware
07:09PM 43.7840 -124.4800 North 521 600 35,000  Level FlightAware
07:10PM 43.8740 -124.4580 10° North 518 596 35,000  Level FlightAware
07:11PM 43.9610 -124.4360 10° North 518 596 35,000  Level FlightAware
07:11PM 44.0780 -124.4080 10° North 517 595 35,000 -480 Level FlightAware
07:12PM 44.1890 -124.3810 10° North 517 595 34,300 -1,440 Descending FlightAware
07:13PM 44.2680 -124.3610 10° North 518 596 33,100 -2,040 Descending FlightAware
07:13PM 44.3600 -124.3390 10° North 514 592 31,900 -1,800 Descending FlightAware
07:14PM 44.4620 -124.3140 10° North 501 577 30,700 -1,620 Descending FlightAware
07:15PM 44.5400 -124.2940 10° North 490 564 29,800 -1,620 Descending FlightAware
07:15PM 44.6310 -124.2720 10° North 478 550 28,700 -1,560 Descending FlightAware
07:16PM 44.7140 -124.2510 10° North 469 540 27,700 -1,620 Descending FlightAware
07:17PM 44.8010 -124.2290 10° North 456 525 26,600 -1,620 Descending FlightAware
07:17PM 44.8930 -124.2060 10° North 450 518 25,500 -1,500 Descending FlightAware
07:18PM 44.9810 -124.1840 10° North 440 506 24,400 -1,500 Descending FlightAware
07:19PM 45.0590 -124.1640 10° North 427 491 23,400 -1,500 Descending FlightAware
07:19PM 45.1390 -124.1440 10° North 426 490 22,400 -1,500 Descending FlightAware
07:20PM 45.2110 -124.1260 10° North 423 487 21,500 -1,560 Descending FlightAware
07:21PM 45.2950 -124.1050 10° North 413 475 20,300 -1,620 Descending FlightAware
07:21PM 45.3690 -124.0860 10° North 401 461 19,300 -1,620 Descending FlightAware
07:22PM 45.4380 -124.0680 10° North 394 453 18,200 -1,800 Descending FlightAware
07:23PM 45.5200 -124.0470 10° North 387 445 16,800 -1,800 Descending FlightAware
07:24PM 45.5900 -124.0290 10° North 380 437 15,700 -1,680 Descending FlightAware
07:24PM 45.6660 -124.0100 10° North 371 427 14,500 -1,620 Descending FlightAware
07:25PM 45.7320 -123.9920 11° North 364 419 13,500 -1,440 Descending FlightAware
07:25PM 45.7790 -123.9800 10° North 359 413 12,900 -1,440 Descending FlightAware
07:26PM 45.8500 -123.9620 10° North 352 405 11,800 -1,440 Descending FlightAware
07:27PM 45.9130 -123.9450 11° North 344 396 10,900 -1,080 Descending FlightAware
07:28PM 45.9800 -123.9280 10° North 324 373 10,300 -660 Descending FlightAware
07:28PM 46.0350 -123.9140 10° North 303 349 10,000 -480 Descending FlightAware
07:29PM 46.0780 -123.9030 10° North 288 331 9,800 -600 Descending FlightAware
07:29PM 46.0930 -123.8990 10° North 286 329 9,600 -900 Descending FlightAware
07:29PM 46.1290 -123.8890 11° North 282 325 9,200 -960 Descending FlightAware
07:30PM 46.1520 -123.8820 12° North 282 325 8,900 -660 Descending FlightAware
07:30PM 46.1750 -123.8640 28° Northeast 283 326 8,800 -420 Descending FlightAware
07:30PM 46.2040 -123.8300 39° Northeast 282 325 8,600 -900 Descending FlightAware
07:31PM 46.2320 -123.7970 39° Northeast 282 325 8,000 -900 Descending FlightAware
07:31PM 46.2580 -123.7660 39° Northeast 278 320 7,800 -240 Descending FlightAware
07:32PM 46.2880 -123.7300 40° Northeast 276 318 7,800  Level FlightAware
07:32PM 46.3000 -123.7170 37° Northeast 277 319 7,800  Level FlightAware
07:33PM 46.3290 -123.6820 40° Northeast 280 322 7,800  Level FlightAware
07:33PM 46.3510 -123.6550 40° Northeast 279 321 7,800  Level FlightAware
07:33PM 46.3720 -123.6300 39° Northeast 279 321 7,800 60 Level FlightAware
07:35PM 46.4631 -123.5228 39° Northeast 278 320 8,000 60 Climbing Seattle Center
07:36PM 46.5228 -123.4525 39° Northeast 278 320 8,000  Level Seattle Center
07:37PM 46.5817 -123.3828 39° Northeast 277 319 8,000  Level Seattle Center
07:38PM 46.6411 -123.3111 40° Northeast 279 321 8,000  Level Seattle Center
07:39PM 46.6994 -123.2392 40° Northeast 279 321 8,000  Level Seattle Center
07:40PM 46.7575 -123.1636 42° Northeast 282 325 8,000  Level Seattle Center
07:41PM 46.8236 -123.0828 40° Northeast 277 319 8,000  Level Seattle Center
07:42PM 46.8825 -123.0108 40° Northeast 276 318 8,000  Level Seattle Center
07:43PM 46.9461 -122.9328 40° Northeast 275 316 8,000 -120 Level Seattle Center
07:44PM 47.0053 -122.8603 40° Northeast 277 319 7,800 -540 Descending Seattle Center
07:49PM 47.3670 -122.6810 40° Northeast 260 299 4,800 -540 Descending FlightAware
07:50PM 47.4220 -122.6530 19° North 257 296 4,800  Level FlightAware
07:51PM 47.4540 -122.6380 18° North 258 297 4,800  Level FlightAware
07:51PM 47.4860 -122.6220 19° North 259 298 4,800  Level FlightAware
07:51PM 47.4980 -122.6170 16° North 259 298 4,800  Level FlightAware
07:52PM 47.5380 -122.5980 18° North 259 298 4,800  Level FlightAware
07:52PM 47.5600 -122.5880 17° North 259 298 4,800  Level FlightAware
07:52PM 47.5690 -122.5830 21° North 258 297 4,800  Level FlightAware
07:53PM 47.6060 -122.5660 17° North 260 299 4,800  Level FlightAware
07:53PM 47.6400 -122.5500 18° North 261 300 4,800  Level FlightAware
07:54PM 47.6860 -122.5310 16° North 263 303 4,800  Level FlightAware
07:54PM 47.7140 -122.5180 17° North 262 302 4,800  Level FlightAware
07:55PM 47.7340 -122.5090 17° North 260 299 4,800  Level FlightAware
07:55PM 47.7640 -122.4950 17° North 259 298 4,800  Level FlightAware
07:56PM 47.7980 -122.4800 17° North 259 298 4,800  Level FlightAware
07:56PM 47.8120 -122.4740 16° North 259 298 4,800 -480 Level FlightAware
07:56PM 47.8430 -122.4600 17° North 256 295 4,500 -840 Descending FlightAware
07:57PM 47.8780 -122.4500 11° North 249 287 4,000 -840 Descending FlightAware
07:57PM 47.9000 -122.4460 North 247 284 3,800 -240 Descending FlightAware
07:58PM 47.9350 -122.4390 North 247 284 3,800  Level FlightAware
07:58PM 47.9620 -122.4340 North 248 285 3,800  Level FlightAware
07:58PM 47.9970 -122.4270 North 249 287 3,800  Level FlightAware
07:59PM 48.0140 -122.4240 North 248 285 3,800  Level FlightAware
07:59PM 48.0420 -122.4200 North 248 285 3,800  Level FlightAware
08:00PM 48.0760 -122.4140 North 247 284 3,800  Level FlightAware
08:00PM 48.1030 -122.4090 North 246 283 3,800  Level FlightAware
08:00PM 48.1360 -122.4020 North 246 283 3,800  Level FlightAware
08:01PM 48.1570 -122.3980 North 247 284 3,800  Level FlightAware
08:01PM 48.1840 -122.3930 North 247 284 3,800  Level FlightAware
08:02PM 48.2110 -122.3830 14° North 246 283 3,800  Level FlightAware
08:02PM 48.2210 -122.3650 50° Northeast 243 280 3,800  Level FlightAware
08:02PM 48.2230 -122.3120 87° East 207 238 3,800  Level FlightAware
08:03PM 48.2170 -122.2870 110° East 189 217 3,800  Level FlightAware
08:03PM 48.2060 -122.2810 160° South 184 212 3,800  Level FlightAware
08:03PM 48.1810 -122.2910 195° South 185 213 3,800  Level FlightAware
08:04PM 48.1610 -122.2910 180° South 185 213 3,800  Level FlightAware
08:04PM 48.1370 -122.3000 194° South 185 213 3,800  Level FlightAware
08:05PM 48.1310 -122.3420 258° West 186 214 3,800  Level FlightAware
08:05PM 48.1300 -122.3740 267° West 186 214 3,800  Level FlightAware
08:06PM 48.1310 -122.4100 272° West 184 212 3,800  Level FlightAware
08:06PM 48.1520 -122.4250 335° Northwest 186 214 3,800  Level FlightAware
08:07PM 48.1780 -122.4100 21° North 186 214 3,800  Level FlightAware
08:07PM 48.1980 -122.3950 27° Northeast 187 215 3,800  Level FlightAware
08:08PM 48.2080 -122.3420 74° East 186 214 3,800  Level FlightAware
08:08PM 48.2060 -122.3110 96° East 186 214 3,800  Level FlightAware
08:09PM 48.1950 -122.2850 122° Southeast 186 214 3,800  Level FlightAware
08:10PM 48.1640 -122.2910 187° South 185 213 3,800  Level FlightAware
08:10PM 48.1370 -122.2910 180° South 186 214 3,800  Level FlightAware
08:10PM 48.1320 -122.2910 180° South 186 214 3,800  Level FlightAware
08:11PM 48.1070 -122.3480 237° Southwest 187 215 3,800  Level FlightAware
08:12PM 48.1260 -122.3910 304° West 186 214 3,800  Level FlightAware
08:12PM 48.1370 -122.3920 357° North 186 214 3,800  Level FlightAware
08:13PM 48.1600 -122.3930 358° North 186 214 3,800  Level FlightAware
08:13PM 48.1850 -122.3790 20° North 188 216 3,800  Level FlightAware
08:13PM 48.1930 -122.3640 51° Northeast 188 216 3,800  Level FlightAware
08:14PM 48.2030 -122.3370 61° Northeast 186 214 3,800  Level FlightAware
08:14PM 48.2030 -122.3190 90° East 185 213 3,800  Level FlightAware
08:15PM 48.1910 -122.2870 119° Southeast 184 212 3,800  Level FlightAware
08:15PM 48.1710 -122.2900 186° South 184 212 3,800  Level FlightAware
08:15PM 48.1440 -122.2910 181° South 186 214 3,800  Level FlightAware
08:16PM 48.1240 -122.2900 178° South 187 215 3,800  Level FlightAware
08:16PM 48.0930 -122.2900 180° South 187 215 3,800  Level FlightAware
08:17PM 48.0760 -122.2860 171° South 187 215 3,800  Level FlightAware
08:17PM 48.0410 -122.2670 160° South 246 283 3,800  Level FlightAware
08:18PM 48.0110 -122.2490 158° South 256 295 3,800  Level FlightAware
08:18PM 47.9810 -122.2300 157° South 253 291 3,800  Level FlightAware
08:19PM 47.9550 -122.2130 156° South 251 289 3,800  Level FlightAware
08:19PM 47.9290 -122.1960 156° South 251 289 3,800  Level FlightAware
08:20PM 47.8970 -122.1750 156° South 251 289 3,800  Level FlightAware
08:20PM 47.8650 -122.1550 157° South 251 289 3,800  Level FlightAware
08:21PM 47.8390 -122.1370 155° Southeast 253 291 3,800 -120 Level FlightAware
08:21PM 47.8040 -122.1150 157° South 255 293 3,700  Descending FlightAware
08:22PM 47.7740 -122.0960 157° South 255 293 3,800 60 Climbing FlightAware
08:22PM 47.7470 -122.0810 160° South 253 291 3,800 60 Level FlightAware
08:22PM 47.7130 -122.0690 167° South 253 291 3,900 60 Climbing FlightAware
08:23PM 47.6840 -122.0590 167° South 252 290 3,900 240 Level FlightAware
08:23PM 47.6580 -122.0490 165° South 255 293 4,100 1,080 Climbing FlightAware
08:24PM 47.6280 -122.0390 167° South 256 295 4,800 600 Climbing FlightAware
08:25PM 47.6030 -122.0300 166° South 260 299 4,900  Climbing FlightAware
08:26PM 47.4820 -121.9310 151° Southeast 4,900  Level FlightAware
08:27PM 47.4400 -121.9480 195° South 210 242 4,900  Level FlightAware
08:27PM 47.4300 -121.9690 235° Southwest 209 241 4,900  Level FlightAware
08:28PM 47.4220 -121.9890 239° Southwest 208 239 4,900 -540 Level FlightAware
08:28PM 47.4070 -122.0230 237° Southwest 206 237 4,500 -960 Descending FlightAware
08:29PM 47.3950 -122.0520 239° Southwest 208 239 4,100 -960 Descending FlightAware
08:29PM 47.3840 -122.0770 237° Southwest 204 235 3,800 -960 Descending FlightAware
08:29PM 47.3710 -122.1050 236° Southwest 202 232 3,400 -900 Descending FlightAware
08:30PM 47.3560 -122.1470 242° Southwest 197 227 2,900 -480 Descending FlightAware
08:30PM 47.3710 -122.1720 312° West 185 213 2,900  Level FlightAware
08:31PM 47.3870 -122.1830 335° Northwest 155 178 2,900 -360 Level FlightAware
08:31PM 47.4040 -122.1960 333° Northwest 139 160 2,600 -720 Descending FlightAware
08:32PM 47.4200 -122.2100 329° Northwest 141 162 2,200 -900 Descending FlightAware
08:32PM 47.4310 -122.2190 331° Northwest 139 160 1,900 -780 Descending FlightAware
08:32PM 47.4440 -122.2300 330° Northwest 139 160 1,700 -600 Descending FlightAware
08:33PM 47.4530 -122.2370 332° Northwest 138 159 1,500 -840 Descending FlightAware
08:33PM 47.4740 -122.2550 330° Northwest 137 158 900 -900 Descending FlightAware
08:34PM 47.4890 -122.2680 330° Northwest 136 157 600 -480 Descending FlightAware
08:35PM 47.5117 -122.2878 330° Northwest 135 155 300 -360 Descending Seattle Center